sensor_id;sensor_type;location;lat;lon;timestamp;pressure;altitude;pressure_sealevel;temperature;humidity
62164;BME280;48149;51.132;7.178;2023-02-04T00:02:18;100086.75;;;18.72;nan
62164;BME280;48149;51.132;7.178;2023-02-04T00:04:43;100099.59;;;17.92;nan
62164;BME280;48149;51.132;7.178;2023-02-04T00:07:08;100098.06;;;20.50;nan
62164;BME280;48149;51.132;7.178;2023-02-04T00:09:33;100101.63;;;20.72;nan
62164;BME280;48149;51.132;7.178;2023-02-04T00:11:59;100097.38;;;21.26;nan
62164;BME280;48149;51.132;7.178;2023-02-04T00:14:24;100098.72;;;19.33;nan
62164;BME280;48149;51.132;7.178;2023-02-04T00:16:49;100106.25;;;17.83;nan
62164;BME280;48149;51.132;7.178;2023-02-04T00:19:14;100103.72;;;18.18;nan
62164;BME280;48149;51.132;7.178;2023-02-04T00:21:43;100101.00;;;19.64;nan
62164;BME280;48149;51.132;7.178;2023-02-04T00:24:08;100101.31;;;18.81;nan
62164;BME280;48149;51.132;7.178;2023-02-04T00:26:34;100110.28;;;17.86;nan
62164;BME280;48149;51.132;7.178;2023-02-04T00:28:59;100108.31;;;17.63;nan
62164;BME280;48149;51.132;7.178;2023-02-04T00:31:24;100104.66;;;19.11;nan
62164;BME280;48149;51.132;7.178;2023-02-04T00:33:50;100109.72;;;19.01;nan
62164;BME280;48149;51.132;7.178;2023-02-04T00:36:15;100109.75;;;19.13;nan
62164;BME280;48149;51.132;7.178;2023-02-04T00:38:40;100106.31;;;19.92;nan
62164;BME280;48149;51.132;7.178;2023-02-04T00:41:05;100113.31;;;18.31;nan
62164;BME280;48149;51.132;7.178;2023-02-04T00:43:31;100112.25;;;18.73;nan
62164;BME280;48149;51.132;7.178;2023-02-04T00:45:56;100113.78;;;17.98;nan
62164;BME280;48149;51.132;7.178;2023-02-04T00:48:21;100116.09;;;19.75;nan
62164;BME280;48149;51.132;7.178;2023-02-04T00:50:47;100125.28;;;17.92;nan
62164;BME280;48149;51.132;7.178;2023-02-04T00:53:14;100119.88;;;19.04;nan
62164;BME280;48149;51.132;7.178;2023-02-04T00:55:40;100132.13;;;17.99;nan
62164;BME280;48149;51.132;7.178;2023-02-04T00:58:05;100135.00;;;18.09;nan
62164;BME280;48149;51.132;7.178;2023-02-04T01:00:30;100134.44;;;18.07;nan
62164;BME280;48149;51.132;7.178;2023-02-04T01:02:56;100138.19;;;18.00;nan
62164;BME280;48149;51.132;7.178;2023-02-04T01:05:21;100130.31;;;18.11;nan
62164;BME280;48149;51.132;7.178;2023-02-04T01:07:46;100129.13;;;17.59;nan
62164;BME280;48149;51.132;7.178;2023-02-04T01:10:11;100123.81;;;17.41;nan
62164;BME280;48149;51.132;7.178;2023-02-04T01:12:37;100124.16;;;20.37;nan
62164;BME280;48149;51.132;7.178;2023-02-04T01:15:02;100136.38;;;18.42;nan
62164;BME280;48149;51.132;7.178;2023-02-04T01:17:27;100136.13;;;19.54;nan
62164;BME280;48149;51.132;7.178;2023-02-04T01:19:53;100149.34;;;18.20;nan
62164;BME280;48149;51.132;7.178;2023-02-04T01:22:18;100158.16;;;18.62;nan
62164;BME280;48149;51.132;7.178;2023-02-04T01:24:43;100158.34;;;18.19;nan
62164;BME280;48149;51.132;7.178;2023-02-04T01:27:08;100163.69;;;18.60;nan
62164;BME280;48149;51.132;7.178;2023-02-04T01:29:33;100165.47;;;19.48;nan
62164;BME280;48149;51.132;7.178;2023-02-04T01:31:59;100167.03;;;18.38;nan
62164;BME280;48149;51.132;7.178;2023-02-04T01:34:24;100163.13;;;17.63;nan
62164;BME280;48149;51.132;7.178;2023-02-04T01:36:52;100161.00;;;17.71;nan
62164;BME280;48149;51.132;7.178;2023-02-04T01:39:17;100165.34;;;19.66;nan
62164;BME280;48149;51.132;7.178;2023-02-04T01:41:42;100175.31;;;18.59;nan
62164;BME280;48149;51.132;7.178;2023-02-04T01:44:08;100173.03;;;16.50;nan
62164;BME280;48149;51.132;7.178;2023-02-04T01:46:33;100172.31;;;17.17;nan
62164;BME280;48149;51.132;7.178;2023-02-04T01:49:01;100175.22;;;17.09;nan
62164;BME280;48149;51.132;7.178;2023-02-04T01:51:27;100184.56;;;18.39;nan
62164;BME280;48149;51.132;7.178;2023-02-04T01:53:54;100181.41;;;19.13;nan
62164;BME280;48149;51.132;7.178;2023-02-04T01:56:21;100172.34;;;17.53;nan
62164;BME280;48149;51.132;7.178;2023-02-04T01:58:47;100181.09;;;18.38;nan
62164;BME280;48149;51.132;7.178;2023-02-04T02:01:14;100176.28;;;19.81;nan
62164;BME280;48149;51.132;7.178;2023-02-04T02:03:39;100177.91;;;17.88;nan
62164;BME280;48149;51.132;7.178;2023-02-04T02:06:04;100187.16;;;19.10;nan
62164;BME280;48149;51.132;7.178;2023-02-04T02:08:33;100179.66;;;18.95;nan
62164;BME280;48149;51.132;7.178;2023-02-04T02:10:58;100173.28;;;18.13;nan
62164;BME280;48149;51.132;7.178;2023-02-04T02:13:23;100178.63;;;19.08;nan
62164;BME280;48149;51.132;7.178;2023-02-04T02:15:49;100180.94;;;19.39;nan
62164;BME280;48149;51.132;7.178;2023-02-04T02:18:14;100177.16;;;17.81;nan
62164;BME280;48149;51.132;7.178;2023-02-04T02:20:41;100185.31;;;20.65;nan
62164;BME280;48149;51.132;7.178;2023-02-04T02:25:35;100185.41;;;17.91;nan
62164;BME280;48149;51.132;7.178;2023-02-04T02:28:08;100185.78;;;17.34;nan
62164;BME280;48149;51.132;7.178;2023-02-04T02:30:33;100198.41;;;19.98;nan
62164;BME280;48149;51.132;7.178;2023-02-04T02:32:59;100199.84;;;19.19;nan
62164;BME280;48149;51.132;7.178;2023-02-04T02:35:24;100193.22;;;19.40;nan
62164;BME280;48149;51.132;7.178;2023-02-04T02:37:49;100195.56;;;21.06;nan
62164;BME280;48149;51.132;7.178;2023-02-04T02:40:15;100205.34;;;19.99;nan
62164;BME280;48149;51.132;7.178;2023-02-04T02:42:41;100206.97;;;20.00;nan
62164;BME280;48149;51.132;7.178;2023-02-04T02:45:10;100209.03;;;20.10;nan
62164;BME280;48149;51.132;7.178;2023-02-04T02:47:37;100210.00;;;17.80;nan
62164;BME280;48149;51.132;7.178;2023-02-04T02:50:02;100202.16;;;20.26;nan
62164;BME280;48149;51.132;7.178;2023-02-04T02:52:27;100201.25;;;20.20;nan
62164;BME280;48149;51.132;7.178;2023-02-04T02:54:53;100199.97;;;20.11;nan
62164;BME280;48149;51.132;7.178;2023-02-04T02:57:19;100212.13;;;21.25;nan
62164;BME280;48149;51.132;7.178;2023-02-04T02:59:45;100209.84;;;20.10;nan
62164;BME280;48149;51.132;7.178;2023-02-04T03:02:11;100202.94;;;19.86;nan
62164;BME280;48149;51.132;7.178;2023-02-04T03:04:39;100210.00;;;20.77;nan
62164;BME280;48149;51.132;7.178;2023-02-04T03:07:06;100214.34;;;21.11;nan
62164;BME280;48149;51.132;7.178;2023-02-04T03:09:31;100223.22;;;21.34;nan
62164;BME280;48149;51.132;7.178;2023-02-04T03:11:57;100222.75;;;20.75;nan
62164;BME280;48149;51.132;7.178;2023-02-04T03:14:22;100219.16;;;20.53;nan
62164;BME280;48149;51.132;7.178;2023-02-04T03:16:49;100222.38;;;20.83;nan
62164;BME280;48149;51.132;7.178;2023-02-04T03:19:14;100227.44;;;21.51;nan
62164;BME280;48149;51.132;7.178;2023-02-04T03:21:40;100217.25;;;20.65;nan
62164;BME280;48149;51.132;7.178;2023-02-04T03:24:06;100229.56;;;19.63;nan
62164;BME280;48149;51.132;7.178;2023-02-04T03:26:31;100238.94;;;20.57;nan
62164;BME280;48149;51.132;7.178;2023-02-04T03:28:56;100232.09;;;20.21;nan
62164;BME280;48149;51.132;7.178;2023-02-04T03:31:23;100238.25;;;20.95;nan
62164;BME280;48149;51.132;7.178;2023-02-04T03:33:48;100238.19;;;20.45;nan
62164;BME280;48149;51.132;7.178;2023-02-04T03:36:13;100242.28;;;21.64;nan
62164;BME280;48149;51.132;7.178;2023-02-04T03:38:38;100250.44;;;19.36;nan
62164;BME280;48149;51.132;7.178;2023-02-04T03:41:04;100239.66;;;20.12;nan
62164;BME280;48149;51.132;7.178;2023-02-04T03:43:29;100241.16;;;20.93;nan
62164;BME280;48149;51.132;7.178;2023-02-04T03:45:54;100240.38;;;21.43;nan
62164;BME280;48149;51.132;7.178;2023-02-04T03:48:20;100246.03;;;21.46;nan
62164;BME280;48149;51.132;7.178;2023-02-04T03:50:45;100252.13;;;20.12;nan
62164;BME280;48149;51.132;7.178;2023-02-04T03:53:10;100251.50;;;21.06;nan
62164;BME280;48149;51.132;7.178;2023-02-04T03:55:36;100249.47;;;18.96;nan
62164;BME280;48149;51.132;7.178;2023-02-04T03:58:02;100240.66;;;20.35;nan
62164;BME280;48149;51.132;7.178;2023-02-04T04:00:27;100250.88;;;20.54;nan
62164;BME280;48149;51.132;7.178;2023-02-04T04:02:53;100250.19;;;20.47;nan
62164;BME280;48149;51.132;7.178;2023-02-04T04:05:18;100247.06;;;20.10;nan
62164;BME280;48149;51.132;7.178;2023-02-04T04:07:43;100259.41;;;21.51;nan
62164;BME280;48149;51.132;7.178;2023-02-04T04:10:09;100259.38;;;22.50;nan
62164;BME280;48149;51.132;7.178;2023-02-04T04:12:34;100253.94;;;21.08;nan
62164;BME280;48149;51.132;7.178;2023-02-04T04:15:00;100251.50;;;21.06;nan
62164;BME280;48149;51.132;7.178;2023-02-04T04:17:25;100255.09;;;19.52;nan
62164;BME280;48149;51.132;7.178;2023-02-04T04:19:50;100253.75;;;20.01;nan
62164;BME280;48149;51.132;7.178;2023-02-04T04:22:16;100253.53;;;21.16;nan
62164;BME280;48149;51.132;7.178;2023-02-04T04:24:41;100250.41;;;20.06;nan
62164;BME280;48149;51.132;7.178;2023-02-04T04:27:07;100273.25;;;18.43;nan
62164;BME280;48149;51.132;7.178;2023-02-04T04:29:32;100256.28;;;18.44;nan
62164;BME280;48149;51.132;7.178;2023-02-04T04:31:57;100271.84;;;19.41;nan
62164;BME280;48149;51.132;7.178;2023-02-04T04:34:22;100278.38;;;20.08;nan
62164;BME280;48149;51.132;7.178;2023-02-04T04:36:47;100291.66;;;19.39;nan
62164;BME280;48149;51.132;7.178;2023-02-04T04:39:13;100281.16;;;20.13;nan
62164;BME280;48149;51.132;7.178;2023-02-04T04:41:38;100296.44;;;19.72;nan
62164;BME280;48149;51.132;7.178;2023-02-04T04:44:03;100287.28;;;18.50;nan
62164;BME280;48149;51.132;7.178;2023-02-04T04:46:28;100296.38;;;20.18;nan
62164;BME280;48149;51.132;7.178;2023-02-04T04:48:54;100302.91;;;19.87;nan
62164;BME280;48149;51.132;7.178;2023-02-04T04:51:19;100295.97;;;20.61;nan
62164;BME280;48149;51.132;7.178;2023-02-04T04:53:44;100299.56;;;19.68;nan
62164;BME280;48149;51.132;7.178;2023-02-04T04:56:09;100304.19;;;19.73;nan
62164;BME280;48149;51.132;7.178;2023-02-04T04:58:35;100299.63;;;18.38;nan
62164;BME280;48149;51.132;7.178;2023-02-04T05:01:00;100299.47;;;19.10;nan
62164;BME280;48149;51.132;7.178;2023-02-04T05:03:25;100293.59;;;19.20;nan
62164;BME280;48149;51.132;7.178;2023-02-04T05:05:51;100299.72;;;19.21;nan
62164;BME280;48149;51.132;7.178;2023-02-04T05:08:16;100286.13;;;20.10;nan
62164;BME280;48149;51.132;7.178;2023-02-04T05:10:43;100301.25;;;21.34;nan
62164;BME280;48149;51.132;7.178;2023-02-04T05:13:08;100296.19;;;20.59;nan
62164;BME280;48149;51.132;7.178;2023-02-04T05:15:34;100294.94;;;21.57;nan
62164;BME280;48149;51.132;7.178;2023-02-04T05:17:59;100301.91;;;20.68;nan
62164;BME280;48149;51.132;7.178;2023-02-04T05:20:24;100311.44;;;19.54;nan
62164;BME280;48149;51.132;7.178;2023-02-04T05:22:50;100311.41;;;21.37;nan
62164;BME280;48149;51.132;7.178;2023-02-04T05:25:15;100323.75;;;21.76;nan
62164;BME280;48149;51.132;7.178;2023-02-04T05:27:43;100315.78;;;21.26;nan
62164;BME280;48149;51.132;7.178;2023-02-04T05:30:09;100315.84;;;21.32;nan
62164;BME280;48149;51.132;7.178;2023-02-04T05:32:35;100331.03;;;20.86;nan
62164;BME280;48149;51.132;7.178;2023-02-04T05:35:00;100327.78;;;20.84;nan
62164;BME280;48149;51.132;7.178;2023-02-04T05:37:25;100324.81;;;20.41;nan
62164;BME280;48149;51.132;7.178;2023-02-04T05:39:51;100332.63;;;18.05;nan
62164;BME280;48149;51.132;7.178;2023-02-04T05:42:16;100323.88;;;20.23;nan
62164;BME280;48149;51.132;7.178;2023-02-04T05:44:41;100325.91;;;22.34;nan
62164;BME280;48149;51.132;7.178;2023-02-04T05:47:06;100330.88;;;21.71;nan
62164;BME280;48149;51.132;7.178;2023-02-04T05:49:32;100323.34;;;20.61;nan
62164;BME280;48149;51.132;7.178;2023-02-04T05:51:57;100329.31;;;21.08;nan
62164;BME280;48149;51.132;7.178;2023-02-04T05:54:22;100338.84;;;20.93;nan
62164;BME280;48149;51.132;7.178;2023-02-04T05:56:47;100337.13;;;20.58;nan
62164;BME280;48149;51.132;7.178;2023-02-04T05:59:12;100351.91;;;19.80;nan
62164;BME280;48149;51.132;7.178;2023-02-04T06:01:38;100347.47;;;20.83;nan
62164;BME280;48149;51.132;7.178;2023-02-04T06:04:03;100344.94;;;20.25;nan
62164;BME280;48149;51.132;7.178;2023-02-04T06:06:28;100350.66;;;21.75;nan
62164;BME280;48149;51.132;7.178;2023-02-04T06:08:54;100349.59;;;20.98;nan
62164;BME280;48149;51.132;7.178;2023-02-04T06:11:19;100355.16;;;20.68;nan
62164;BME280;48149;51.132;7.178;2023-02-04T06:13:46;100356.78;;;20.97;nan
62164;BME280;48149;51.132;7.178;2023-02-04T06:16:12;100362.09;;;20.69;nan
62164;BME280;48149;51.132;7.178;2023-02-04T06:18:37;100374.16;;;20.60;nan
62164;BME280;48149;51.132;7.178;2023-02-04T06:21:02;100381.03;;;20.44;nan
62164;BME280;48149;51.132;7.178;2023-02-04T06:23:29;100378.88;;;20.69;nan
62164;BME280;48149;51.132;7.178;2023-02-04T06:25:54;100377.13;;;20.75;nan
62164;BME280;48149;51.132;7.178;2023-02-04T06:28:19;100379.19;;;20.45;nan
62164;BME280;48149;51.132;7.178;2023-02-04T06:30:45;100382.06;;;19.97;nan
62164;BME280;48149;51.132;7.178;2023-02-04T06:33:10;100388.31;;;19.79;nan
62164;BME280;48149;51.132;7.178;2023-02-04T06:35:35;100389.06;;;18.67;nan
62164;BME280;48149;51.132;7.178;2023-02-04T06:38:01;100399.00;;;19.61;nan
62164;BME280;48149;51.132;7.178;2023-02-04T06:40:26;100398.59;;;19.04;nan
62164;BME280;48149;51.132;7.178;2023-02-04T06:42:52;100396.59;;;19.71;nan
62164;BME280;48149;51.132;7.178;2023-02-04T06:45:17;100387.16;;;19.87;nan
62164;BME280;48149;51.132;7.178;2023-02-04T06:47:42;100387.72;;;19.54;nan
62164;BME280;48149;51.132;7.178;2023-02-04T06:50:07;100396.91;;;18.92;nan
62164;BME280;48149;51.132;7.178;2023-02-04T06:52:33;100393.25;;;18.93;nan
62164;BME280;48149;51.132;7.178;2023-02-04T06:54:58;100392.13;;;19.00;nan
62164;BME280;48149;51.132;7.178;2023-02-04T06:57:24;100392.81;;;20.25;nan
62164;BME280;48149;51.132;7.178;2023-02-04T06:59:49;100392.47;;;20.45;nan
62164;BME280;48149;51.132;7.178;2023-02-04T07:02:14;100392.13;;;19.83;nan
62164;BME280;48149;51.132;7.178;2023-02-04T07:04:39;100398.25;;;19.84;nan
62164;BME280;48149;51.132;7.178;2023-02-04T07:07:07;100395.16;;;20.85;nan
62164;BME280;48149;51.132;7.178;2023-02-04T07:09:32;100410.41;;;20.38;nan
62164;BME280;48149;51.132;7.178;2023-02-04T07:11:58;100411.88;;;19.76;nan
62164;BME280;48149;51.132;7.178;2023-02-04T07:14:23;100404.59;;;19.71;nan
62164;BME280;48149;51.132;7.178;2023-02-04T07:16:48;100407.53;;;17.94;nan
62164;BME280;48149;51.132;7.178;2023-02-04T07:19:14;100417.34;;;19.51;nan
62164;BME280;48149;51.132;7.178;2023-02-04T07:21:39;100415.72;;;18.90;nan
62164;BME280;48149;51.132;7.178;2023-02-04T07:24:04;100423.56;;;20.21;nan
62164;BME280;48149;51.132;7.178;2023-02-04T07:26:29;100412.06;;;21.07;nan
62164;BME280;48149;51.132;7.178;2023-02-04T07:28:55;100427.03;;;20.56;nan
62164;BME280;48149;51.132;7.178;2023-02-04T07:31:20;100428.78;;;20.39;nan
62164;BME280;48149;51.132;7.178;2023-02-04T07:33:45;100434.56;;;20.24;nan
62164;BME280;48149;51.132;7.178;2023-02-04T07:36:11;100431.19;;;21.04;nan
62164;BME280;48149;51.132;7.178;2023-02-04T07:38:38;100432.88;;;21.21;nan
62164;BME280;48149;51.132;7.178;2023-02-04T07:41:03;100439.59;;;20.84;nan
62164;BME280;48149;51.132;7.178;2023-02-04T07:43:29;100430.25;;;21.83;nan
62164;BME280;48149;51.132;7.178;2023-02-04T07:45:54;100445.19;;;22.34;nan
62164;BME280;48149;51.132;7.178;2023-02-04T07:48:19;100437.22;;;21.39;nan
62164;BME280;48149;51.132;7.178;2023-02-04T07:50:45;100446.69;;;21.18;nan
62164;BME280;48149;51.132;7.178;2023-02-04T07:53:10;100450.16;;;21.47;nan
62164;BME280;48149;51.132;7.178;2023-02-04T07:55:35;100458.75;;;21.21;nan
62164;BME280;48149;51.132;7.178;2023-02-04T07:58:00;100462.22;;;20.35;nan
62164;BME280;48149;51.132;7.178;2023-02-04T08:00:33;100453.31;;;21.04;nan
62164;BME280;48149;51.132;7.178;2023-02-04T08:02:58;100460.94;;;21.86;nan
62164;BME280;48149;51.132;7.178;2023-02-04T08:05:23;100468.91;;;21.69;nan
62164;BME280;48149;51.132;7.178;2023-02-04T08:07:49;100467.09;;;21.86;nan
62164;BME280;48149;51.132;7.178;2023-02-04T08:10:14;100456.75;;;22.23;nan
62164;BME280;48149;51.132;7.178;2023-02-04T08:12:39;100463.66;;;22.02;nan
62164;BME280;48149;51.132;7.178;2023-02-04T08:15:05;100464.53;;;21.63;nan
62164;BME280;48149;51.132;7.178;2023-02-04T08:17:33;100459.91;;;22.97;nan
62164;BME280;48149;51.132;7.178;2023-02-04T08:19:59;100461.00;;;23.44;nan
62164;BME280;48149;51.132;7.178;2023-02-04T08:22:24;100468.28;;;21.78;nan
62164;BME280;48149;51.132;7.178;2023-02-04T08:24:49;100468.81;;;21.92;nan
62164;BME280;48149;51.132;7.178;2023-02-04T08:27:14;100471.56;;;21.69;nan
62164;BME280;48149;51.132;7.178;2023-02-04T08:29:42;100471.72;;;22.24;nan
62164;BME280;48149;51.132;7.178;2023-02-04T08:32:07;100473.94;;;21.82;nan
62164;BME280;48149;51.132;7.178;2023-02-04T08:34:34;100479.28;;;22.49;nan
62164;BME280;48149;51.132;7.178;2023-02-04T08:36:59;100480.97;;;22.55;nan
62164;BME280;48149;51.132;7.178;2023-02-04T08:39:25;100486.75;;;22.30;nan
62164;BME280;48149;51.132;7.178;2023-02-04T08:41:50;100478.97;;;22.28;nan
62164;BME280;48149;51.132;7.178;2023-02-04T08:44:15;100488.38;;;22.31;nan
62164;BME280;48149;51.132;7.178;2023-02-04T08:46:43;100487.41;;;22.37;nan
62164;BME280;48149;51.132;7.178;2023-02-04T08:49:08;100492.09;;;22.13;nan
62164;BME280;48149;51.132;7.178;2023-02-04T08:51:33;100497.78;;;22.55;nan
62164;BME280;48149;51.132;7.178;2023-02-04T08:53:58;100499.50;;;23.26;nan
62164;BME280;48149;51.132;7.178;2023-02-04T08:56:24;100499.59;;;21.55;nan
62164;BME280;48149;51.132;7.178;2023-02-04T08:58:49;100503.41;;;22.20;nan
62164;BME280;48149;51.132;7.178;2023-02-04T09:01:17;100499.50;;;21.95;nan
62164;BME280;48149;51.132;7.178;2023-02-04T09:03:42;100502.22;;;22.66;nan
62164;BME280;48149;51.132;7.178;2023-02-04T09:06:07;100505.47;;;21.57;nan
62164;BME280;48149;51.132;7.178;2023-02-04T09:08:33;100511.22;;;21.94;nan
62164;BME280;48149;51.132;7.178;2023-02-04T09:11:00;100519.53;;;22.64;nan
62164;BME280;48149;51.132;7.178;2023-02-04T09:13:26;100514.84;;;23.58;nan
62164;BME280;48149;51.132;7.178;2023-02-04T09:15:51;100526.88;;;22.57;nan
62164;BME280;48149;51.132;7.178;2023-02-04T09:18:17;100527.66;;;21.17;nan
62164;BME280;48149;51.132;7.178;2023-02-04T09:20:45;100532.00;;;22.58;nan
62164;BME280;48149;51.132;7.178;2023-02-04T09:23:11;100532.50;;;22.55;nan
62164;BME280;48149;51.132;7.178;2023-02-04T09:25:39;100543.34;;;22.49;nan
62164;BME280;48149;51.132;7.178;2023-02-04T09:28:05;100542.28;;;23.05;nan
62164;BME280;48149;51.132;7.178;2023-02-04T09:30:31;100542.88;;;22.68;nan
62164;BME280;48149;51.132;7.178;2023-02-04T09:32:57;100549.91;;;20.42;nan
62164;BME280;48149;51.132;7.178;2023-02-04T09:35:22;100545.00;;;21.08;nan
62164;BME280;48149;51.132;7.178;2023-02-04T09:37:47;100534.13;;;22.56;nan
62164;BME280;48149;51.132;7.178;2023-02-04T09:40:13;100540.81;;;21.64;nan
62164;BME280;48149;51.132;7.178;2023-02-04T09:42:42;100535.25;;;22.10;nan
62164;BME280;48149;51.132;7.178;2023-02-04T09:45:10;100544.78;;;24.40;nan
62164;BME280;48149;51.132;7.178;2023-02-04T09:47:39;100547.63;;;23.05;nan
62164;BME280;48149;51.132;7.178;2023-02-04T09:50:08;100548.13;;;24.20;nan
62164;BME280;48149;51.132;7.178;2023-02-04T09:52:41;100553.94;;;24.86;nan
62164;BME280;48149;51.132;7.178;2023-02-04T09:55:13;100544.47;;;24.36;nan
62164;BME280;48149;51.132;7.178;2023-02-04T09:57:45;100558.56;;;25.58;nan
62164;BME280;48149;51.132;7.178;2023-02-04T10:00:14;100556.63;;;23.90;nan
62164;BME280;48149;51.132;7.178;2023-02-04T10:02:46;100555.63;;;24.23;nan
62164;BME280;48149;51.132;7.178;2023-02-04T10:05:12;100563.09;;;23.95;nan
62164;BME280;48149;51.132;7.178;2023-02-04T10:07:42;100563.69;;;24.28;nan
62164;BME280;48149;51.132;7.178;2023-02-04T10:10:15;100566.53;;;23.90;nan
62164;BME280;48149;51.132;7.178;2023-02-04T10:12:42;100573.38;;;26.00;nan
62164;BME280;48149;51.132;7.178;2023-02-04T10:15:11;100573.56;;;27.15;nan
62164;BME280;48149;51.132;7.178;2023-02-04T10:17:36;100581.94;;;28.17;nan
62164;BME280;48149;51.132;7.178;2023-02-04T10:20:02;100568.75;;;27.71;nan
62164;BME280;48149;51.132;7.178;2023-02-04T10:22:27;100579.44;;;27.81;nan
62164;BME280;48149;51.132;7.178;2023-02-04T10:24:53;100581.44;;;24.76;nan
62164;BME280;48149;51.132;7.178;2023-02-04T10:27:18;100578.22;;;28.99;nan
62164;BME280;48149;51.132;7.178;2023-02-04T10:29:56;100573.97;;;31.07;nan
62164;BME280;48149;51.132;7.178;2023-02-04T10:32:25;100574.88;;;27.28;nan
62164;BME280;48149;51.132;7.178;2023-02-04T10:34:58;100573.47;;;29.09;nan
62164;BME280;48149;51.132;7.178;2023-02-04T10:37:24;100577.25;;;27.34;nan
62164;BME280;48149;51.132;7.178;2023-02-04T10:39:49;100572.78;;;25.58;nan
62164;BME280;48149;51.132;7.178;2023-02-04T10:44:46;100571.63;;;24.18;nan
62164;BME280;48149;51.132;7.178;2023-02-04T10:47:16;100567.41;;;24.96;nan
62164;BME280;48149;51.132;7.178;2023-02-04T10:49:51;100570.66;;;22.06;nan
62164;BME280;48149;51.132;7.178;2023-02-04T10:52:17;100579.34;;;23.40;nan
62164;BME280;48149;51.132;7.178;2023-02-04T10:54:43;100566.34;;;25.69;nan
62164;BME280;48149;51.132;7.178;2023-02-04T10:57:43;100573.66;;;25.84;nan
62164;BME280;48149;51.132;7.178;2023-02-04T11:00:00;100571.56;;;24.77;nan
62164;BME280;48149;51.132;7.178;2023-02-04T11:02:42;100566.97;;;26.12;nan
62164;BME280;48149;51.132;7.178;2023-02-04T11:05:10;100572.19;;;23.94;nan
62164;BME280;48149;51.132;7.178;2023-02-04T11:07:36;100574.66;;;25.58;nan
62164;BME280;48149;51.132;7.178;2023-02-04T11:10:02;100573.06;;;24.63;nan
62164;BME280;48149;51.132;7.178;2023-02-04T11:12:38;100556.47;;;28.62;nan
62164;BME280;48149;51.132;7.178;2023-02-04T11:15:05;100568.63;;;28.30;nan
62164;BME280;48149;51.132;7.178;2023-02-04T11:17:32;100571.47;;;26.92;nan
62164;BME280;48149;51.132;7.178;2023-02-04T11:19:57;100570.44;;;26.58;nan
62164;BME280;48149;51.132;7.178;2023-02-04T11:22:44;100578.31;;;25.41;nan
62164;BME280;48149;51.132;7.178;2023-02-04T11:27:54;100590.03;;;20.87;nan
62164;BME280;48149;51.132;7.178;2023-02-04T11:30:20;100574.94;;;22.23;nan
62164;BME280;48149;51.132;7.178;2023-02-04T11:32:54;100583.31;;;22.77;nan
62164;BME280;48149;51.132;7.178;2023-02-04T11:35:21;100580.44;;;21.09;nan
62164;BME280;48149;51.132;7.178;2023-02-04T11:37:47;100585.34;;;21.92;nan
62164;BME280;48149;51.132;7.178;2023-02-04T11:40:19;100576.09;;;22.77;nan
62164;BME280;48149;51.132;7.178;2023-02-04T11:42:45;100575.88;;;21.72;nan
62164;BME280;48149;51.132;7.178;2023-02-04T11:47:37;100574.81;;;23.40;nan
62164;BME280;48149;51.132;7.178;2023-02-04T11:50:04;100575.06;;;21.72;nan
62164;BME280;48149;51.132;7.178;2023-02-04T11:52:35;100573.72;;;22.64;nan
62164;BME280;48149;51.132;7.178;2023-02-04T11:55:00;100579.13;;;23.24;nan
62164;BME280;48149;51.132;7.178;2023-02-04T11:57:26;100589.34;;;22.89;nan
62164;BME280;48149;51.132;7.178;2023-02-04T11:59:51;100582.16;;;22.23;nan
62164;BME280;48149;51.132;7.178;2023-02-04T12:02:20;100581.03;;;23.07;nan
62164;BME280;48149;51.132;7.178;2023-02-04T12:04:53;100582.63;;;24.54;nan
62164;BME280;48149;51.132;7.178;2023-02-04T12:07:23;100577.88;;;23.10;nan
62164;BME280;48149;51.132;7.178;2023-02-04T12:09:49;100577.13;;;23.80;nan
62164;BME280;48149;51.132;7.178;2023-02-04T12:12:22;100570.16;;;24.06;nan
62164;BME280;48149;51.132;7.178;2023-02-04T12:14:54;100584.88;;;22.11;nan
62164;BME280;48149;51.132;7.178;2023-02-04T12:17:20;100576.00;;;22.56;nan
62164;BME280;48149;51.132;7.178;2023-02-04T12:19:45;100577.97;;;23.37;nan
62164;BME280;48149;51.132;7.178;2023-02-04T12:22:10;100573.34;;;23.32;nan
62164;BME280;48149;51.132;7.178;2023-02-04T12:24:36;100580.75;;;23.04;nan
62164;BME280;48149;51.132;7.178;2023-02-04T12:27:01;100583.22;;;23.10;nan
62164;BME280;48149;51.132;7.178;2023-02-04T12:29:26;100589.19;;;21.84;nan
62164;BME280;48149;51.132;7.178;2023-02-04T12:31:51;100579.03;;;23.58;nan
62164;BME280;48149;51.132;7.178;2023-02-04T12:34:17;100574.91;;;23.28;nan
62164;BME280;48149;51.132;7.178;2023-02-04T12:36:42;100585.72;;;22.62;nan
62164;BME280;48149;51.132;7.178;2023-02-04T12:39:07;100594.00;;;23.15;nan
62164;BME280;48149;51.132;7.178;2023-02-04T12:41:35;100581.63;;;21.81;nan
62164;BME280;48149;51.132;7.178;2023-02-04T12:44:01;100590.97;;;21.27;nan
62164;BME280;48149;51.132;7.178;2023-02-04T12:46:27;100590.72;;;22.58;nan
62164;BME280;48149;51.132;7.178;2023-02-04T12:48:52;100594.72;;;23.32;nan
62164;BME280;48149;51.132;7.178;2023-02-04T12:51:17;100593.34;;;22.70;nan
62164;BME280;48149;51.132;7.178;2023-02-04T12:53:44;100588.59;;;21.82;nan
62164;BME280;48149;51.132;7.178;2023-02-04T12:56:10;100591.25;;;21.82;nan
62164;BME280;48149;51.132;7.178;2023-02-04T12:58:35;100588.25;;;21.90;nan
62164;BME280;48149;51.132;7.178;2023-02-04T13:01:00;100600.41;;;21.58;nan
62164;BME280;48149;51.132;7.178;2023-02-04T13:03:26;100587.19;;;22.53;nan
62164;BME280;48149;51.132;7.178;2023-02-04T13:05:51;100591.13;;;22.83;nan
62164;BME280;48149;51.132;7.178;2023-02-04T13:08:16;100587.59;;;22.78;nan
62164;BME280;48149;51.132;7.178;2023-02-04T13:10:42;100591.59;;;22.64;nan
62164;BME280;48149;51.132;7.178;2023-02-04T13:13:07;100587.00;;;22.93;nan
62164;BME280;48149;51.132;7.178;2023-02-04T13:15:32;100588.94;;;23.84;nan